createdAt,value
2019-06-26T00:01:31.443Z,101359.80
2019-06-26T00:04:00.742Z,101359.33
2019-06-26T00:06:30.217Z,101360.58
2019-06-26T00:08:59.546Z,101360.11
2019-06-26T00:11:28.793Z,101355.25
2019-06-26T00:13:58.067Z,101350.78
2019-06-26T00:16:27.398Z,101358.71
2019-06-26T00:18:56.674Z,101358.97
2019-06-26T00:21:25.972Z,101350.95
2019-06-26T00:23:55.289Z,101348.30
2019-06-26T00:26:24.576Z,101346.82
2019-06-26T00:28:53.854Z,101345.03
2019-06-26T00:31:42.184Z,101351.00
2019-06-26T00:34:11.465Z,101345.03
2019-06-26T00:36:40.743Z,101340.39
2019-06-26T00:39:10.012Z,101338.31
2019-06-26T00:41:39.359Z,101337.86
2019-06-26T00:44:08.633Z,101333.10
2019-06-26T00:46:37.913Z,101338.24
2019-06-26T00:49:07.248Z,101332.27
2019-06-26T00:51:36.563Z,101336.19
2019-06-26T00:54:05.869Z,101330.08
2019-06-26T00:59:23.457Z,101325.95
2019-06-26T01:01:52.757Z,101321.92
2019-06-26T01:04:26.734Z,101320.00
2019-06-26T01:06:56.019Z,101310.48
2019-06-26T01:09:25.453Z,101312.32
2019-06-26T01:11:54.678Z,101310.75
2019-06-26T01:14:24.026Z,101309.18
2019-06-26T01:16:53.392Z,101308.69
2019-06-26T01:19:22.710Z,101300.78
2019-06-26T01:21:52.003Z,101295.92
2019-06-26T01:24:21.322Z,101298.62
2019-06-26T01:26:50.669Z,101301.28
2019-06-26T01:29:19.930Z,101301.77
2019-06-26T01:31:49.281Z,101296.51
2019-06-26T01:34:18.572Z,101293.96
2019-06-26T01:36:47.891Z,101289.09
2019-06-26T01:39:17.175Z,101288.83
2019-06-26T01:41:46.531Z,101291.28
2019-06-26T01:44:15.901Z,101300.15
2019-06-26T01:46:45.169Z,101293.34
2019-06-26T01:49:14.444Z,101294.52
2019-06-26T01:51:43.755Z,101295.75
2019-06-26T01:54:13.043Z,101289.89
2019-06-26T01:56:42.317Z,101290.75
2019-06-26T01:59:11.593Z,101289.29
2019-06-26T02:01:40.867Z,101276.73
2019-06-26T02:04:10.266Z,101282.56
2019-06-26T02:06:39.554Z,101275.86
2019-06-26T02:09:08.843Z,101268.19
2019-06-26T02:11:38.097Z,101263.51
2019-06-26T02:14:07.386Z,101272.75
2019-06-26T02:16:36.668Z,101278.81
2019-06-26T02:21:42.088Z,101267.59
2019-06-26T02:24:11.358Z,101269.78
2019-06-26T02:26:40.622Z,101265.65
2019-06-26T02:29:09.933Z,101259.19
2019-06-26T02:34:27.527Z,101249.19
2019-06-26T02:36:56.794Z,101245.41
2019-06-26T02:39:26.061Z,101238.44
2019-06-26T02:41:55.355Z,101242.96
2019-06-26T02:44:24.630Z,101243.66
2019-06-26T02:46:53.894Z,101231.74
2019-06-26T02:49:23.210Z,101244.64
2019-06-26T02:51:52.491Z,101246.81
2019-06-26T02:54:21.824Z,101245.11
2019-06-26T02:56:51.127Z,101244.14
2019-06-26T02:59:20.405Z,101238.78
2019-06-26T03:01:49.709Z,101236.86
2019-06-26T03:04:19.034Z,101239.53
2019-06-26T03:06:48.320Z,101240.87
2019-06-26T03:09:17.593Z,101239.89
2019-06-26T03:11:46.893Z,101240.28
2019-06-26T03:14:16.160Z,101248.08
2019-06-26T03:16:45.496Z,101246.13
2019-06-26T03:19:14.773Z,101241.88
2019-06-26T03:21:44.040Z,101238.50
2019-06-26T03:24:13.300Z,101241.69
2019-06-26T03:26:42.572Z,101243.39
2019-06-26T03:29:11.862Z,101240.99
2019-06-26T03:31:41.158Z,101232.85
2019-06-26T03:34:29.482Z,101240.20
2019-06-26T03:36:58.754Z,101242.17
2019-06-26T03:39:28.015Z,101239.02
2019-06-26T03:44:32.433Z,101229.28
2019-06-26T03:47:01.719Z,101230.14
2019-06-26T03:49:49.892Z,101225.89
2019-06-26T03:52:19.213Z,101228.67
2019-06-26T03:54:48.666Z,101226.14
2019-06-26T03:57:17.939Z,101221.25
2019-06-26T03:59:47.276Z,101212.27
2019-06-26T04:02:16.546Z,101212.48
2019-06-26T04:04:45.816Z,101212.86
2019-06-26T04:07:33.982Z,101212.84
2019-06-26T04:12:37.953Z,101213.44
2019-06-26T04:18:02.030Z,101196.65
2019-06-26T04:23:05.627Z,101197.34
2019-06-26T04:25:37.266Z,101192.45
2019-06-26T04:28:06.521Z,101190.71
2019-06-26T04:30:36.941Z,101190.30
2019-06-26T04:33:06.251Z,101185.38
2019-06-26T04:35:35.541Z,101171.84
2019-06-26T04:38:04.817Z,101168.73
2019-06-26T04:40:34.084Z,101169.20
2019-06-26T04:43:03.358Z,101169.77
2019-06-26T04:45:32.636Z,101168.39
2019-06-26T04:48:02.029Z,101174.00
2019-06-26T04:53:05.694Z,101171.67
2019-06-26T04:55:34.977Z,101167.54
2019-06-26T04:58:04.250Z,101169.95
2019-06-26T05:00:33.530Z,101163.63
2019-06-26T05:03:02.814Z,101161.63
2019-06-26T05:05:39.743Z,101159.75
2019-06-26T05:08:03.108Z,101161.36
2019-06-26T05:10:32.368Z,101151.61
2019-06-26T05:13:01.649Z,101153.92
2019-06-26T05:15:30.975Z,101158.02
2019-06-26T05:18:00.291Z,101157.98
2019-06-26T05:20:29.619Z,101154.95
2019-06-26T05:22:58.926Z,101150.23
2019-06-26T05:25:28.182Z,101149.05
2019-06-26T05:27:57.533Z,101149.88
2019-06-26T05:30:26.766Z,101151.33
2019-06-26T05:32:56.042Z,101142.12
2019-06-26T05:35:25.354Z,101133.28
2019-06-26T05:37:54.616Z,101131.78
2019-06-26T05:40:23.986Z,101127.90
2019-06-26T05:45:28.392Z,101128.96
2019-06-26T05:50:32.396Z,101126.75
2019-06-26T05:53:01.798Z,101130.78
2019-06-26T05:55:31.074Z,101126.12
2019-06-26T05:58:00.345Z,101131.06
2019-06-26T06:00:29.633Z,101132.78
2019-06-26T06:02:58.980Z,101133.75
2019-06-26T06:05:28.868Z,101129.81
2019-06-26T06:07:58.171Z,101130.36
2019-06-26T06:10:27.482Z,101118.20
2019-06-26T06:12:56.750Z,101123.30
2019-06-26T06:15:26.027Z,101132.80
2019-06-26T06:20:43.618Z,101135.64
2019-06-26T06:23:13.446Z,101137.77
2019-06-26T06:25:42.721Z,101139.50
2019-06-26T06:28:12.011Z,101134.89
2019-06-26T06:30:41.313Z,101131.77
2019-06-26T06:33:10.586Z,101124.95
2019-06-26T06:35:39.890Z,101134.55
2019-06-26T06:38:09.182Z,101130.84
2019-06-26T06:40:38.470Z,101133.14
2019-06-26T06:43:07.740Z,101128.67
2019-06-26T06:45:37.012Z,101129.29
2019-06-26T06:48:06.453Z,101129.33
2019-06-26T06:50:35.736Z,101130.64
2019-06-26T06:53:05.010Z,101120.57
2019-06-26T06:55:34.350Z,101122.70
2019-06-26T06:58:03.634Z,101118.30
2019-06-26T07:00:32.935Z,101120.38
2019-06-26T07:03:02.375Z,101114.24
2019-06-26T07:05:31.647Z,101118.58
2019-06-26T07:08:00.990Z,101124.07
2019-06-26T07:10:30.283Z,101120.36
2019-06-26T07:12:59.582Z,101111.97
2019-06-26T07:15:28.914Z,101103.30
2019-06-26T07:17:58.203Z,101106.39
2019-06-26T07:20:39.633Z,101109.00
2019-06-26T07:23:08.889Z,101110.10
2019-06-26T07:25:38.209Z,101103.14
2019-06-26T07:28:07.812Z,101107.45
2019-06-26T07:30:37.042Z,101109.69
2019-06-26T07:33:06.311Z,101108.70
2019-06-26T07:35:54.664Z,101108.39
2019-06-26T07:38:24.031Z,101108.39
2019-06-26T07:40:53.434Z,101103.12
2019-06-26T07:43:22.728Z,101092.19
2019-06-26T07:45:52.030Z,101099.48
2019-06-26T07:48:23.423Z,101108.92
2019-06-26T07:50:52.702Z,101116.34
2019-06-26T07:53:22.088Z,101111.23
2019-06-26T07:55:51.363Z,101116.80
2019-06-26T07:58:39.544Z,101127.44
2019-06-26T08:01:08.945Z,101120.17
2019-06-26T08:03:40.517Z,101120.80
2019-06-26T08:06:28.856Z,101119.62
2019-06-26T08:08:58.166Z,101125.57
2019-06-26T08:11:27.464Z,101125.25
2019-06-26T08:13:56.770Z,101126.92
2019-06-26T08:16:26.076Z,101128.27
2019-06-26T08:21:55.487Z,101131.39
2019-06-26T08:24:24.771Z,101134.19
2019-06-26T08:26:54.124Z,101133.88
2019-06-26T08:29:23.434Z,101131.19
2019-06-26T08:31:52.703Z,101123.72
2019-06-26T08:34:21.996Z,101117.72
2019-06-26T08:36:51.270Z,101124.17
2019-06-26T08:39:39.473Z,101122.19
2019-06-26T08:42:08.814Z,101116.17
2019-06-26T08:44:38.075Z,101107.73
2019-06-26T08:47:07.354Z,101104.05
2019-06-26T08:49:36.635Z,101096.97
2019-06-26T12:28:21.474Z,101046.84
2019-06-26T12:30:50.767Z,101046.84
2019-06-26T12:33:20.063Z,101049.85
2019-06-26T12:35:49.389Z,101051.11
2019-06-26T12:38:18.644Z,101050.95
2019-06-26T12:40:48.655Z,101052.31
2019-06-26T12:43:17.918Z,101053.71
2019-06-26T12:45:47.199Z,101049.32
2019-06-26T12:48:16.618Z,101063.17
2019-06-26T12:50:45.837Z,101060.13
2019-06-26T12:53:15.135Z,101066.20
2019-06-26T12:55:44.412Z,101053.17
2019-06-26T12:58:19.814Z,101060.09
2019-06-26T13:00:46.562Z,101056.78
2019-06-26T13:03:15.851Z,101059.35
2019-06-26T13:05:45.103Z,101067.17
2019-06-26T13:08:14.368Z,101059.49
2019-06-26T13:10:49.807Z,101062.28
2019-06-26T13:13:14.738Z,101062.59
2019-06-26T13:15:44.009Z,101070.63
2019-06-26T13:18:13.296Z,101070.78
2019-06-26T13:20:52.697Z,101075.49
2019-06-26T13:23:14.905Z,101080.33
2019-06-26T13:25:44.406Z,101087.70
2019-06-26T13:28:13.689Z,101089.20
2019-06-26T13:30:43.052Z,101086.86
2019-06-26T13:33:12.314Z,101083.14
2019-06-26T13:35:41.665Z,101088.63
2019-06-26T13:38:10.926Z,101090.38
2019-06-26T13:40:41.212Z,101088.20
2019-06-26T13:43:10.633Z,101089.34
2019-06-26T13:45:39.900Z,101108.68
2019-06-26T13:48:09.185Z,101104.97
2019-06-26T13:50:38.497Z,101095.15
2019-06-26T13:53:07.781Z,101096.14
2019-06-26T13:55:37.049Z,101101.56
2019-06-26T13:58:06.359Z,101105.28
2019-06-26T14:00:35.654Z,101112.06
2019-06-26T14:03:04.913Z,101122.19
2019-06-26T14:05:34.227Z,101098.47
2019-06-26T14:08:03.493Z,101118.45
2019-06-26T14:10:32.816Z,101106.61
2019-06-26T14:13:02.114Z,101119.65
2019-06-26T14:15:31.376Z,101107.41
2019-06-26T14:18:00.696Z,101115.86
2019-06-26T14:20:30.027Z,101108.27
2019-06-26T14:22:59.309Z,101112.36
2019-06-26T14:25:28.599Z,101113.65
2019-06-26T14:27:57.875Z,101117.70
2019-06-26T14:30:28.074Z,101112.59
2019-06-26T14:32:57.566Z,101117.63
2019-06-26T14:35:26.904Z,101120.28
2019-06-26T14:37:56.213Z,101118.59
2019-06-26T14:40:25.491Z,101118.23
2019-06-26T14:42:54.782Z,101125.69
2019-06-26T14:45:25.625Z,101134.66
2019-06-26T14:47:54.886Z,101133.08
2019-06-26T14:50:24.169Z,101135.69
2019-06-26T14:52:53.429Z,101128.66
2019-06-26T14:55:22.704Z,101130.98
2019-06-26T14:57:51.961Z,101128.71
2019-06-26T15:00:21.870Z,101132.74
2019-06-26T15:02:51.134Z,101144.86
2019-06-26T15:05:20.419Z,101125.26
2019-06-26T15:07:50.309Z,101136.18
2019-06-26T15:10:19.747Z,101130.82
2019-06-26T15:12:49.025Z,101134.41
2019-06-26T15:15:18.392Z,101132.66
2019-06-26T15:17:47.759Z,101135.66
2019-06-26T15:20:18.500Z,101122.28
2019-06-26T15:22:47.765Z,101124.20
2019-06-26T15:25:18.446Z,101127.20
2019-06-26T15:27:48.624Z,101127.20
2019-06-26T15:30:17.994Z,101137.61
2019-06-26T15:32:47.264Z,101131.41
2019-06-26T15:35:16.655Z,101131.12
2019-06-26T15:37:45.917Z,101127.35
2019-06-26T15:40:15.213Z,101135.95
2019-06-26T15:42:44.483Z,101122.73
2019-06-26T15:45:14.119Z,101127.01
2019-06-26T15:47:43.443Z,101115.31
2019-06-26T15:50:12.904Z,101125.85
2019-06-26T15:52:42.184Z,101136.75
2019-06-26T15:55:12.284Z,101125.40
2019-06-26T15:57:41.684Z,101129.16
2019-06-26T16:00:11.431Z,101123.58
2019-06-26T16:02:40.744Z,101113.30
2019-06-26T16:05:10.035Z,101111.39
2019-06-26T16:07:39.321Z,101116.48
2019-06-26T16:10:09.675Z,101112.81
2019-06-26T16:12:38.998Z,101114.23
2019-06-26T16:15:08.675Z,101121.64
2019-06-26T16:18:06.079Z,101122.86
2019-06-26T16:20:35.532Z,101134.63
2019-06-26T16:23:04.815Z,101132.78
2019-06-26T16:25:34.201Z,101135.31
2019-06-26T16:28:05.881Z,101123.44
2019-06-26T16:30:34.508Z,101128.65
2019-06-26T16:33:03.856Z,101129.09
2019-06-26T16:35:33.247Z,101126.23
2019-06-26T16:38:02.585Z,101132.11
2019-06-26T16:40:31.882Z,101133.76
2019-06-26T16:43:01.236Z,101140.10
2019-06-26T16:45:30.563Z,101143.20
2019-06-26T16:48:23.323Z,101146.59
2019-06-26T16:50:59.235Z,101157.06
2019-06-26T16:53:28.541Z,101150.81
2019-06-26T16:55:57.809Z,101162.36
2019-06-26T16:58:27.097Z,101156.72
2019-06-26T17:00:56.404Z,101143.18
2019-06-26T17:03:25.701Z,101137.45
2019-06-26T17:05:57.769Z,101142.22
2019-06-26T17:08:27.061Z,101140.62
2019-06-26T17:10:56.428Z,101145.70
2019-06-26T17:13:25.703Z,101144.28
2019-06-26T17:15:55.000Z,101140.06
2019-06-26T17:18:24.344Z,101134.43
2019-06-26T17:20:53.606Z,101141.36
2019-06-26T17:23:22.949Z,101143.38
2019-06-26T17:25:52.207Z,101145.25
2019-06-26T17:28:21.520Z,101146.38
2019-06-26T17:30:52.957Z,101144.52
2019-06-26T17:33:21.915Z,101138.75
2019-06-26T17:35:51.238Z,101138.37
2019-06-26T17:38:20.611Z,101128.06
2019-06-26T17:40:49.891Z,101118.40
2019-06-26T17:43:19.303Z,101123.77
2019-06-26T17:45:48.603Z,101121.54
2019-06-26T17:48:17.996Z,101121.13
2019-06-26T17:50:47.338Z,101117.86
2019-06-26T17:53:21.453Z,101114.94
2019-06-26T17:55:47.678Z,101117.91
2019-06-26T17:58:17.073Z,101117.77
2019-06-26T18:00:46.423Z,101117.13
2019-06-26T18:03:16.114Z,101118.27
2019-06-26T18:05:45.394Z,101106.16
2019-06-26T18:08:14.743Z,101111.53
2019-06-26T18:10:44.090Z,101109.73
2019-06-26T18:13:13.360Z,101105.77
2019-06-26T18:15:42.657Z,101107.18
2019-06-26T18:18:12.085Z,101106.80
2019-06-26T18:20:41.369Z,101105.38
2019-06-26T18:23:10.705Z,101113.95
2019-06-26T18:25:40.058Z,101110.19
2019-06-26T18:28:09.339Z,101111.53
2019-06-26T18:30:38.633Z,101108.50
2019-06-26T18:33:07.987Z,101111.36
2019-06-26T18:35:37.360Z,101110.63
2019-06-26T18:38:06.669Z,101101.15
2019-06-26T18:40:36.005Z,101100.42
2019-06-26T18:43:05.310Z,101109.72
2019-06-26T18:45:34.607Z,101103.27
2019-06-26T18:48:04.057Z,101103.95
2019-06-26T18:50:41.131Z,101106.89
2019-06-26T18:53:10.572Z,101109.70
2019-06-26T18:55:39.963Z,101107.83
2019-06-26T18:58:11.754Z,101109.89
2019-06-26T19:00:41.098Z,101099.66
2019-06-26T19:03:10.404Z,101110.02
2019-06-26T19:05:39.739Z,101109.19
2019-06-26T19:08:09.045Z,101114.34
2019-06-26T19:10:38.336Z,101110.58
2019-06-26T19:13:07.610Z,101115.80
2019-06-26T19:15:38.165Z,101108.27
2019-06-26T19:18:07.451Z,101112.54
2019-06-26T19:20:36.722Z,101111.92
2019-06-26T19:23:06.030Z,101119.72
2019-06-26T19:25:35.419Z,101120.22
2019-06-26T19:28:04.710Z,101126.06
2019-06-26T19:30:34.003Z,101116.81
2019-06-26T19:33:03.371Z,101115.25
2019-06-26T19:35:32.684Z,101126.56
2019-06-26T19:38:01.982Z,101124.63
2019-06-26T19:40:31.385Z,101112.60
2019-06-26T19:43:00.660Z,101113.80
2019-06-26T19:45:30.063Z,101124.52
2019-06-26T19:47:59.351Z,101126.96
2019-06-26T19:50:28.651Z,101121.22
2019-06-26T19:52:57.937Z,101123.89
2019-06-26T19:55:27.218Z,101116.00
2019-06-26T19:57:56.494Z,101126.34
2019-06-26T20:00:25.763Z,101119.66
2019-06-26T20:02:55.054Z,101120.20
2019-06-26T20:05:24.506Z,101122.52
2019-06-26T20:07:53.784Z,101125.08
2019-06-26T20:10:23.262Z,101115.60
2019-06-26T20:12:52.570Z,101115.84
2019-06-26T20:15:21.887Z,101124.81
2019-06-26T20:17:51.169Z,101124.46
2019-06-26T20:20:20.459Z,101126.75
2019-06-26T20:22:49.748Z,101120.92
2019-06-26T20:25:19.548Z,101124.58
2019-06-26T20:27:48.842Z,101129.93
2019-06-26T20:30:21.102Z,101126.75
2019-06-26T20:32:50.383Z,101129.19
2019-06-26T20:35:19.680Z,101130.28
2019-06-26T20:37:48.997Z,101133.70
2019-06-26T20:40:18.268Z,101125.29
2019-06-26T20:42:47.530Z,101129.69
2019-06-26T20:45:16.989Z,101127.25
2019-06-26T20:47:46.281Z,101131.50
2019-06-26T20:50:15.678Z,101137.80
2019-06-26T20:52:44.975Z,101136.46
2019-06-26T20:55:14.236Z,101129.78
2019-06-26T20:57:43.556Z,101126.98
2019-06-26T21:00:13.111Z,101127.58
2019-06-26T21:02:42.426Z,101127.45
2019-06-26T21:05:12.803Z,101116.25
2019-06-26T21:07:42.118Z,101117.11
2019-06-26T21:10:11.487Z,101121.08
2019-06-26T21:12:40.791Z,101120.12
2019-06-26T21:15:10.985Z,101117.30
2019-06-26T21:17:40.252Z,101119.09
2019-06-26T21:20:09.646Z,101120.42
2019-06-26T21:22:38.910Z,101119.31
2019-06-26T21:25:18.322Z,101114.31
2019-06-26T21:27:39.763Z,101118.67
2019-06-26T21:30:10.554Z,101115.33
2019-06-26T21:32:39.838Z,101121.52
2019-06-26T21:35:09.117Z,101115.07
2019-06-26T21:37:38.405Z,101112.23
2019-06-26T21:40:08.275Z,101111.75
2019-06-26T21:42:37.569Z,101114.29
2019-06-26T21:45:07.127Z,101115.84
2019-06-26T21:47:36.523Z,101113.02
2019-06-26T21:50:05.992Z,101116.08
2019-06-26T21:52:35.350Z,101115.91
2019-06-26T21:55:04.606Z,101120.25
2019-06-26T21:57:33.876Z,101115.89
2019-06-26T22:00:03.601Z,101116.58
2019-06-26T22:02:33.154Z,101124.81
2019-06-26T22:05:02.805Z,101128.11
2019-06-26T22:07:32.512Z,101126.02
2019-06-26T22:10:01.762Z,101122.59
2019-06-26T22:12:31.087Z,101115.78
2019-06-26T22:15:00.369Z,101119.03
2019-06-26T22:17:29.653Z,101128.37
2019-06-26T22:19:58.931Z,101125.70
2019-06-26T22:22:28.196Z,101123.66
2019-06-26T22:24:57.491Z,101126.91
2019-06-26T22:27:26.764Z,101121.56
2019-06-26T22:29:56.057Z,101125.43
2019-06-26T22:32:25.329Z,101118.00
2019-06-26T22:34:54.602Z,101118.62
2019-06-26T22:37:24.046Z,101116.89
2019-06-26T22:39:53.314Z,101119.42
2019-06-26T22:42:22.595Z,101119.06
2019-06-26T22:44:51.965Z,101124.39
2019-06-26T22:47:21.352Z,101126.31
2019-06-26T22:49:50.701Z,101125.55
2019-06-26T22:52:19.936Z,101132.84
2019-06-26T22:54:49.221Z,101136.45
2019-06-26T22:57:18.552Z,101127.83
2019-06-26T22:59:47.839Z,101134.75
2019-06-26T23:02:17.125Z,101137.64
2019-06-26T23:04:46.396Z,101127.94
2019-06-26T23:07:15.666Z,101126.21
2019-06-26T23:09:44.993Z,101120.16
2019-06-26T23:12:14.281Z,101123.39
2019-06-26T23:14:43.556Z,101125.81
2019-06-26T23:17:12.864Z,101125.92
2019-06-26T23:19:42.128Z,101126.50
2019-06-26T23:22:11.414Z,101128.02
2019-06-26T23:24:40.677Z,101128.23
2019-06-26T23:27:09.968Z,101130.64
2019-06-26T23:29:39.241Z,101128.55
2019-06-26T23:32:08.515Z,101128.66
2019-06-26T23:34:37.788Z,101127.94
2019-06-26T23:37:07.073Z,101132.52
2019-06-26T23:39:36.368Z,101136.27
2019-06-26T23:42:05.729Z,101133.70
2019-06-26T23:44:35.008Z,101131.25
2019-06-26T23:47:04.280Z,101131.82
2019-06-26T23:49:33.977Z,101134.12
2019-06-26T23:52:03.278Z,101135.67
2019-06-26T23:54:32.788Z,101118.55
2019-06-26T23:57:02.055Z,101125.44
2019-06-26T23:59:31.339Z,101121.64
